createdAt,value
2018-01-24T05:00:43.797Z,0
2018-01-24T05:01:09.241Z,0
2018-01-24T05:01:34.724Z,0
2018-01-24T05:02:00.213Z,0
2018-01-24T05:02:25.713Z,0
2018-01-24T05:02:51.208Z,0
2018-01-24T05:03:16.673Z,0
2018-01-24T05:03:42.160Z,0
2018-01-24T05:04:07.668Z,0
2018-01-24T05:04:33.145Z,0
2018-01-24T05:04:58.643Z,0
2018-01-24T05:05:24.190Z,0
2018-01-24T05:05:49.687Z,0
2018-01-24T05:06:15.142Z,0
2018-01-24T05:06:40.622Z,0
2018-01-24T05:07:06.091Z,0
2018-01-24T05:07:31.572Z,0
2018-01-24T05:07:57.029Z,0
2018-01-24T05:08:22.572Z,0
2018-01-24T05:09:46.562Z,0
2018-01-24T05:10:12.073Z,0
2018-01-24T05:10:37.562Z,0
2018-01-24T05:11:03.071Z,0
2018-01-24T05:11:28.606Z,0
2018-01-24T05:11:54.093Z,0
2018-01-24T05:12:19.566Z,0
2018-01-24T05:12:45.074Z,0
2018-01-24T05:14:04.010Z,0
2018-01-24T05:14:29.486Z,0
2018-01-24T05:14:54.973Z,0
2018-01-24T05:15:20.457Z,0
2018-01-24T05:16:24.061Z,0
2018-01-24T05:16:49.550Z,0
2018-01-24T05:17:15.027Z,0
2018-01-24T05:17:40.566Z,0
2018-01-24T05:18:06.026Z,0
2018-01-24T05:18:31.514Z,0
2018-01-24T05:18:57.006Z,0
2018-01-24T05:19:22.507Z,0
2018-01-24T05:19:47.978Z,0
2018-01-24T05:20:13.490Z,0
2018-01-24T05:20:38.978Z,0
2018-01-24T05:21:04.446Z,0
2018-01-24T05:21:29.911Z,0
2018-01-24T05:21:55.357Z,0
2018-01-24T05:22:20.887Z,0
2018-01-24T05:22:46.402Z,0
2018-01-24T05:23:11.902Z,0
2018-01-24T05:23:37.387Z,0
2018-01-24T05:24:41.327Z,0
2018-01-24T05:25:06.831Z,0
2018-01-24T05:25:32.293Z,0
2018-01-24T05:25:57.745Z,0
2018-01-24T05:26:23.199Z,0
2018-01-24T05:26:48.654Z,0
2018-01-24T05:27:14.172Z,0
2018-01-24T05:27:39.800Z,0
2018-01-24T05:28:05.270Z,0
2018-01-24T05:28:30.843Z,0
2018-01-24T05:28:56.293Z,0
2018-01-24T05:29:21.760Z,0
2018-01-24T05:29:47.250Z,0
2018-01-24T05:30:12.810Z,0
2018-01-24T05:30:38.271Z,0
2018-01-24T05:31:41.902Z,0
2018-01-24T05:32:07.354Z,0
2018-01-24T05:32:32.884Z,0
2018-01-24T05:32:58.305Z,0
2018-01-24T05:33:23.804Z,0
2018-01-24T05:33:49.274Z,0
2018-01-24T05:34:14.753Z,0
2018-01-24T05:34:40.206Z,0
2018-01-24T05:35:05.670Z,0
2018-01-24T05:35:31.172Z,0
2018-01-24T05:35:56.631Z,0
2018-01-24T05:36:22.110Z,0
2018-01-24T05:36:47.591Z,0
2018-01-24T05:37:13.075Z,0
2018-01-24T05:37:38.531Z,0
2018-01-24T05:38:04.047Z,0
2018-01-24T05:38:29.530Z,0
2018-01-24T05:38:55.133Z,0
2018-01-24T05:39:20.667Z,0
2018-01-24T05:39:46.127Z,0
2018-01-24T05:40:11.600Z,0
2018-01-24T05:40:37.272Z,0
2018-01-24T05:41:56.161Z,0
2018-01-24T05:42:21.643Z,0
2018-01-24T05:42:47.238Z,0
2018-01-24T05:43:12.678Z,0
2018-01-24T05:43:38.135Z,0
2018-01-24T05:44:03.639Z,0
2018-01-24T05:44:29.126Z,0
2018-01-24T05:44:54.599Z,0
2018-01-24T05:45:20.092Z,0
2018-01-24T05:45:45.552Z,0
2018-01-24T05:46:11.048Z,0
2018-01-24T05:46:36.534Z,0
2018-01-24T05:47:01.991Z,0
2018-01-24T05:48:05.582Z,0
2018-01-24T05:48:31.090Z,0
2018-01-24T05:48:56.580Z,0
2018-01-24T05:50:20.675Z,0
2018-01-24T05:50:46.163Z,0
2018-01-24T05:51:11.686Z,0
2018-01-24T05:51:37.191Z,0
2018-01-24T05:52:02.702Z,0
2018-01-24T05:52:28.124Z,0
2018-01-24T05:52:53.631Z,0
2018-01-24T05:53:19.119Z,0
2018-01-24T05:53:44.607Z,0
2018-01-24T05:54:10.049Z,0
2018-01-24T05:55:18.732Z,0
2018-01-24T05:55:44.214Z,0
2018-01-24T05:56:09.715Z,0
2018-01-24T05:57:33.727Z,0
2018-01-24T05:57:59.217Z,0
2018-01-24T05:58:24.717Z,0
2018-01-24T05:58:50.196Z,0
2018-01-24T05:59:15.686Z,0
2018-01-24T06:00:19.282Z,0
2018-01-24T06:00:44.776Z,0
2018-01-24T06:01:10.222Z,0
2018-01-24T06:01:35.684Z,0
2018-01-24T06:02:01.161Z,0
2018-01-24T06:02:26.657Z,0
2018-01-24T06:02:52.224Z,0
2018-01-24T06:03:17.750Z,0
2018-01-24T06:03:43.233Z,0
2018-01-24T06:04:08.706Z,0
2018-01-24T06:04:34.210Z,0
2018-01-24T06:04:59.656Z,0
2018-01-24T06:05:25.149Z,0
2018-01-24T06:05:50.638Z,0
2018-01-24T06:06:16.139Z,0
2018-01-24T06:06:41.641Z,0
2018-01-24T06:07:07.156Z,0
2018-01-24T06:07:32.607Z,0
2018-01-24T06:07:58.129Z,0
2018-01-24T06:08:23.621Z,0
2018-01-24T06:09:32.318Z,0
2018-01-24T06:09:57.792Z,0
2018-01-24T06:10:23.280Z,0
2018-01-24T06:10:48.750Z,0
2018-01-24T06:11:14.225Z,0
2018-01-24T06:11:39.725Z,0
2018-01-24T06:12:05.211Z,0
2018-01-24T06:12:30.668Z,0
2018-01-24T06:12:56.172Z,0
2018-01-24T06:13:21.681Z,0
2018-01-24T06:13:47.208Z,0
2018-01-24T06:15:06.133Z,0
2018-01-24T06:15:31.622Z,0
2018-01-24T06:15:57.119Z,0
2018-01-24T06:16:22.668Z,0
2018-01-24T06:16:48.139Z,0
2018-01-24T06:18:12.135Z,0
2018-01-24T06:18:37.616Z,0
2018-01-24T06:19:03.101Z,0
2018-01-24T06:19:28.590Z,0
2018-01-24T06:19:54.106Z,0
2018-01-24T06:20:57.706Z,0
2018-01-24T06:21:23.206Z,0
2018-01-24T06:22:42.171Z,0
2018-01-24T06:23:07.663Z,0
2018-01-24T06:23:33.134Z,0
2018-01-24T06:23:58.648Z,0
2018-01-24T06:24:24.161Z,0
2018-01-24T06:25:27.829Z,0
2018-01-24T06:25:53.291Z,0
2018-01-24T06:26:18.747Z,0
2018-01-24T06:26:44.256Z,0
2018-01-24T06:27:09.743Z,0
2018-01-24T06:27:35.234Z,0
2018-01-24T06:28:00.749Z,0
2018-01-24T06:28:26.257Z,0
2018-01-24T06:29:45.322Z,0
2018-01-24T06:30:10.789Z,0
2018-01-24T06:30:36.454Z,0
2018-01-24T06:31:02.168Z,0
2018-01-24T06:31:27.862Z,0
2018-01-24T06:31:53.528Z,0
2018-01-24T06:32:19.082Z,0
2018-01-24T06:32:44.576Z,0
2018-01-24T06:33:10.070Z,0
2018-01-24T06:33:35.567Z,0
2018-01-24T06:34:01.055Z,0
2018-01-24T06:34:26.545Z,0
2018-01-24T06:34:52.050Z,0
2018-01-24T06:35:17.574Z,0
2018-01-24T06:35:43.021Z,0
2018-01-24T06:36:08.512Z,0
2018-01-24T06:36:33.970Z,0
2018-01-24T06:36:59.441Z,0
2018-01-24T06:37:24.954Z,0
2018-01-24T06:37:50.455Z,0
2018-01-24T06:38:15.934Z,0
2018-01-24T06:38:41.438Z,0
2018-01-24T06:39:45.051Z,0
2018-01-24T06:40:10.541Z,0
2018-01-24T06:40:36.028Z,0
2018-01-24T06:41:01.519Z,0
2018-01-24T06:41:27.014Z,0
2018-01-24T06:41:52.483Z,0
2018-01-24T06:43:11.389Z,0
2018-01-24T06:43:36.886Z,0
2018-01-24T06:44:02.393Z,0
2018-01-24T06:44:27.900Z,0
2018-01-24T06:44:53.402Z,0
2018-01-24T06:45:18.919Z,0
2018-01-24T06:45:44.421Z,0
2018-01-24T06:46:09.917Z,0
2018-01-24T06:46:35.388Z,0
2018-01-24T06:47:49.243Z,0
2018-01-24T06:48:14.692Z,0
2018-01-24T06:48:40.172Z,0
2018-01-24T06:49:05.674Z,0
2018-01-24T06:49:31.169Z,0
2018-01-24T06:49:56.675Z,0
2018-01-24T06:50:22.179Z,0
2018-01-24T06:50:47.674Z,0
2018-01-24T06:52:06.684Z,4
2018-01-24T06:52:32.165Z,4
2018-01-24T06:52:57.774Z,4
2018-01-24T06:53:23.210Z,4
2018-01-24T06:53:48.727Z,4
2018-01-24T06:54:14.201Z,4
2018-01-24T06:54:39.706Z,0
2018-01-24T06:55:05.207Z,4
2018-01-24T06:55:30.713Z,4
2018-01-24T06:55:56.201Z,4
2018-01-24T06:56:21.684Z,8
2018-01-24T06:56:47.176Z,8
2018-01-24T06:57:12.720Z,4
2018-01-24T06:57:38.223Z,8
2018-01-24T06:58:52.035Z,4
2018-01-24T06:59:17.532Z,8
2018-01-24T06:59:43.107Z,8
2018-01-24T07:00:08.539Z,8
2018-01-24T07:00:33.981Z,12
2018-01-24T07:00:59.507Z,8
2018-01-24T07:01:24.969Z,12
2018-01-24T07:01:50.505Z,12
2018-01-24T07:02:16.000Z,12
2018-01-24T07:02:41.514Z,12
2018-01-24T07:03:07.025Z,12
2018-01-24T07:03:32.508Z,16
2018-01-24T07:03:58.004Z,16
2018-01-24T07:04:23.504Z,12
2018-01-24T07:04:49.008Z,16
2018-01-24T07:05:14.488Z,16
2018-01-24T07:05:39.992Z,16
2018-01-24T07:06:05.495Z,16
2018-01-24T07:06:30.981Z,16
2018-01-24T07:06:56.477Z,20
2018-01-24T07:07:21.989Z,28
2018-01-24T07:07:47.516Z,24
2018-01-24T07:08:12.961Z,24
2018-01-24T07:08:38.451Z,28
2018-01-24T07:09:03.944Z,28
2018-01-24T07:09:29.404Z,32
2018-01-24T07:09:54.895Z,32
2018-01-24T07:11:03.594Z,32
2018-01-24T07:11:29.103Z,28
2018-01-24T07:11:54.589Z,28
2018-01-24T07:12:20.082Z,28
2018-01-24T07:13:38.958Z,44
2018-01-24T07:14:04.434Z,44
2018-01-24T07:14:29.932Z,48
2018-01-24T07:14:55.422Z,56
2018-01-24T07:15:20.924Z,56
2018-01-24T07:15:46.411Z,56
2018-01-24T07:16:11.926Z,56
2018-01-24T07:16:37.410Z,52
2018-01-24T07:17:02.884Z,56
2018-01-24T07:17:28.350Z,56
2018-01-24T07:17:53.808Z,52
2018-01-24T07:18:19.279Z,48
2018-01-24T07:19:38.213Z,72
2018-01-24T07:20:03.746Z,80
2018-01-24T07:20:29.354Z,88
2018-01-24T07:21:32.948Z,100
2018-01-24T07:21:58.441Z,100
2018-01-24T07:22:23.923Z,100
2018-01-24T07:22:49.432Z,104
2018-01-24T07:23:14.923Z,104
2018-01-24T07:23:40.421Z,104
2018-01-24T07:24:05.906Z,112
2018-01-24T07:25:14.635Z,112
2018-01-24T07:25:40.142Z,100
2018-01-24T07:26:05.643Z,104
2018-01-24T07:26:31.125Z,100
2018-01-24T07:26:56.642Z,108
2018-01-24T07:27:22.136Z,112
2018-01-24T07:28:41.030Z,96
2018-01-24T07:29:06.596Z,92
2018-01-24T07:30:15.300Z,120
2018-01-24T07:30:40.782Z,132
2018-01-24T07:31:06.308Z,128
2018-01-24T07:31:31.794Z,132
2018-01-24T07:31:57.300Z,140
2018-01-24T07:32:22.760Z,120
2018-01-24T07:32:48.230Z,116
2018-01-24T07:33:13.730Z,140
2018-01-24T07:33:39.230Z,164
2018-01-24T07:34:04.700Z,168
2018-01-24T07:34:30.169Z,176
2018-01-24T07:34:55.649Z,180
2018-01-24T07:35:21.145Z,160
2018-01-24T07:35:46.728Z,164
2018-01-24T07:36:12.199Z,172
2018-01-24T07:36:37.658Z,156
2018-01-24T07:37:03.145Z,156
2018-01-24T07:37:28.636Z,156
2018-01-24T07:37:54.141Z,164
2018-01-24T07:38:19.608Z,172
2018-01-24T07:38:45.142Z,164
2018-01-24T07:39:48.788Z,172
2018-01-24T07:40:14.294Z,196
2018-01-24T07:40:39.889Z,232
2018-01-24T07:41:05.340Z,236
2018-01-24T07:41:30.837Z,240
2018-01-24T07:41:56.348Z,232
2018-01-24T07:42:21.866Z,232
2018-01-24T07:42:47.382Z,228
2018-01-24T07:43:12.887Z,236
2018-01-24T07:43:38.354Z,240
2018-01-24T07:44:03.898Z,232
2018-01-24T07:44:29.414Z,284
2018-01-24T07:44:54.926Z,272
2018-01-24T07:45:20.440Z,288
2018-01-24T07:45:45.905Z,288
2018-01-24T07:46:11.418Z,328
2018-01-24T07:46:36.985Z,352
2018-01-24T07:47:02.450Z,364
2018-01-24T07:47:27.934Z,356
2018-01-24T07:47:53.423Z,388
2018-01-24T07:48:18.964Z,396
2018-01-24T07:48:44.530Z,388
2018-01-24T07:49:10.013Z,396
2018-01-24T07:49:35.514Z,416
2018-01-24T07:50:00.990Z,400
2018-01-24T07:50:26.564Z,384
2018-01-24T07:50:52.026Z,408
2018-01-24T07:52:00.694Z,468
2018-01-24T07:52:26.205Z,476
2018-01-24T07:52:51.684Z,532
2018-01-24T07:53:17.172Z,552
2018-01-24T07:54:36.069Z,412
2018-01-24T07:55:01.597Z,440
2018-01-24T07:55:27.061Z,476
2018-01-24T07:55:52.587Z,432
2018-01-24T07:56:18.061Z,452
2018-01-24T07:56:43.570Z,464
2018-01-24T07:57:09.094Z,392
2018-01-24T07:57:34.547Z,392
2018-01-24T07:58:00.076Z,396
2018-01-24T07:58:25.597Z,404
2018-01-24T07:58:51.066Z,420
2018-01-24T07:59:16.576Z,388
2018-01-24T07:59:42.110Z,400
2018-01-24T08:00:07.596Z,488
2018-01-24T08:00:33.087Z,500
2018-01-24T08:01:41.833Z,428
2018-01-24T08:02:07.365Z,456
2018-01-24T08:02:32.856Z,460
2018-01-24T08:02:58.337Z,512
2018-01-24T08:03:23.872Z,492
2018-01-24T08:03:49.345Z,556
2018-01-24T08:04:14.894Z,584
2018-01-24T08:04:40.408Z,556
2018-01-24T08:05:05.899Z,584
2018-01-24T08:05:31.388Z,620
2018-01-24T08:05:56.888Z,748
2018-01-24T08:06:22.395Z,808
2018-01-24T08:06:47.884Z,736
2018-01-24T08:07:13.342Z,584
2018-01-24T08:07:38.866Z,580
2018-01-24T08:08:04.338Z,720
2018-01-24T08:08:29.824Z,812
2018-01-24T08:08:55.381Z,772
2018-01-24T08:09:20.903Z,736
2018-01-24T08:09:46.396Z,748
2018-01-24T08:10:11.870Z,704
2018-01-24T08:10:37.328Z,724
2018-01-24T08:11:02.788Z,708
2018-01-24T08:11:28.283Z,668
2018-01-24T08:11:53.841Z,728
2018-01-24T08:12:19.317Z,772
2018-01-24T08:12:44.841Z,804
2018-01-24T08:13:10.342Z,748
2018-01-24T08:13:35.809Z,708
2018-01-24T08:14:01.266Z,904
2018-01-24T08:14:26.736Z,1056
2018-01-24T08:14:52.181Z,1096
2018-01-24T08:15:17.686Z,976
2018-01-24T08:15:43.169Z,952
2018-01-24T08:16:08.683Z,916
2018-01-24T08:16:34.213Z,1052
2018-01-24T08:16:59.669Z,1020
2018-01-24T08:18:14.453Z,1096
2018-01-24T08:18:39.942Z,1204
2018-01-24T08:19:05.473Z,1172
2018-01-24T08:19:30.963Z,1124
2018-01-24T08:20:49.955Z,1068
2018-01-24T08:21:15.414Z,980
2018-01-24T08:21:40.965Z,1192
2018-01-24T08:22:06.392Z,1376
2018-01-24T08:22:31.868Z,1180
2018-01-24T08:22:57.376Z,1072
2018-01-24T08:23:22.839Z,988
2018-01-24T08:23:48.354Z,948
2018-01-24T08:24:13.845Z,1004
2018-01-24T08:24:39.307Z,1112
2018-01-24T08:25:04.822Z,1148
2018-01-24T08:25:30.322Z,1192
2018-01-24T08:25:55.844Z,1184
2018-01-24T08:26:21.340Z,1156
2018-01-24T08:26:46.809Z,1164
2018-01-24T08:27:51.624Z,1192
2018-01-24T08:28:17.117Z,1356
2018-01-24T08:29:30.928Z,1608
2018-01-24T08:29:56.401Z,1356
2018-01-24T08:30:22.132Z,1260
2018-01-24T08:30:47.582Z,1448
2018-01-24T08:31:13.073Z,1564
2018-01-24T08:32:37.075Z,1876
2018-01-24T08:33:02.569Z,1848
2018-01-24T08:33:28.057Z,1828
2018-01-24T08:33:53.554Z,1896
2018-01-24T08:34:19.054Z,1880
2018-01-24T08:34:44.530Z,1812
2018-01-24T08:35:09.975Z,1856
2018-01-24T08:35:35.442Z,1884
2018-01-24T08:36:00.938Z,1836
2018-01-24T08:36:26.406Z,1768
2018-01-24T08:36:51.914Z,1796
2018-01-24T08:37:17.431Z,1772
2018-01-24T08:37:42.898Z,1608
2018-01-24T08:38:08.363Z,1632
2018-01-24T08:38:33.881Z,1736
2018-01-24T08:38:59.340Z,1804
2018-01-24T08:40:23.314Z,1064
2018-01-24T08:40:48.822Z,1120
2018-01-24T08:41:14.322Z,1384
2018-01-24T08:41:39.821Z,1484
2018-01-24T08:42:05.355Z,1276
2018-01-24T08:42:30.855Z,1288
2018-01-24T08:42:56.348Z,1352
2018-01-24T08:43:21.891Z,1524
2018-01-24T08:43:47.384Z,1340
2018-01-24T08:44:12.882Z,1228
2018-01-24T08:44:38.364Z,1284
2018-01-24T08:45:03.868Z,1448
2018-01-24T08:45:29.374Z,1244
2018-01-24T08:45:54.891Z,1060
2018-01-24T08:46:20.371Z,992
2018-01-24T08:46:45.926Z,916
2018-01-24T08:47:11.375Z,1116
2018-01-24T08:47:36.895Z,1284
2018-01-24T08:48:02.410Z,1172
2018-01-24T08:48:27.914Z,960
2018-01-24T08:48:53.363Z,932
2018-01-24T08:49:18.905Z,908
2018-01-24T08:49:44.360Z,1136
2018-01-24T08:50:47.980Z,2156
2018-01-24T08:51:13.474Z,2316
2018-01-24T08:51:38.948Z,2332
2018-01-24T08:52:04.470Z,2264
2018-01-24T08:52:29.942Z,2384
2018-01-24T08:52:55.435Z,2500
2018-01-24T08:53:20.918Z,2528
2018-01-24T08:53:46.399Z,2616
2018-01-24T08:54:11.933Z,2756
2018-01-24T08:54:37.428Z,2828
2018-01-24T08:55:02.962Z,2940
2018-01-24T08:56:11.634Z,3080
2018-01-24T08:56:37.145Z,2996
2018-01-24T08:57:02.660Z,3004
2018-01-24T08:57:28.160Z,3040
2018-01-24T08:57:53.650Z,2992
2018-01-24T08:58:19.126Z,2928
2018-01-24T08:58:44.617Z,3016
2018-01-24T08:59:10.081Z,3240
2018-01-24T08:59:35.559Z,3428
2018-01-24T09:00:01.024Z,3448
2018-01-24T09:00:26.552Z,3404
2018-01-24T09:00:52.042Z,3384
2018-01-24T09:01:17.575Z,3428
2018-01-24T09:01:43.293Z,3628
2018-01-24T09:02:08.782Z,3880
2018-01-24T09:02:34.264Z,3984
2018-01-24T09:02:59.747Z,3996
2018-01-24T09:03:25.247Z,3880
2018-01-24T09:03:50.748Z,3760
2018-01-24T09:04:16.241Z,3808
2018-01-24T09:04:41.696Z,3940
2018-01-24T09:06:00.634Z,4128
2018-01-24T09:06:26.120Z,4080
2018-01-24T09:07:34.903Z,3864
2018-01-24T09:08:00.419Z,3788
2018-01-24T09:08:25.919Z,3768
2018-01-24T09:08:51.386Z,3816
2018-01-24T09:09:16.840Z,3888
2018-01-24T09:09:42.343Z,3964
2018-01-24T09:10:07.850Z,4028
2018-01-24T09:10:33.340Z,4032
2018-01-24T09:10:58.880Z,4004
2018-01-24T09:11:24.368Z,3924
2018-01-24T09:11:49.835Z,3796
2018-01-24T09:12:15.339Z,3684
2018-01-24T09:12:40.816Z,3648
2018-01-24T09:13:06.299Z,3648
2018-01-24T09:13:31.786Z,3588
2018-01-24T09:13:57.281Z,3580
2018-01-24T09:14:22.722Z,3600
2018-01-24T09:14:48.229Z,3572
2018-01-24T09:15:13.704Z,3544
2018-01-24T09:15:39.199Z,3508
2018-01-24T09:16:04.696Z,3476
2018-01-24T09:17:23.618Z,3780
2018-01-24T09:17:49.109Z,3916
2018-01-24T09:19:02.879Z,4040
2018-01-24T09:19:28.387Z,4040
2018-01-24T09:19:53.868Z,4028
2018-01-24T09:20:19.340Z,4032
2018-01-24T09:20:44.836Z,3924
2018-01-24T09:21:10.325Z,3896
2018-01-24T09:21:35.823Z,3872
2018-01-24T09:22:01.312Z,3796
2018-01-24T09:22:26.814Z,3720
2018-01-24T09:22:52.337Z,3648
2018-01-24T09:23:17.866Z,3568
2018-01-24T09:23:43.357Z,3540
2018-01-24T09:24:08.856Z,3564
2018-01-24T09:24:34.356Z,3540
2018-01-24T09:24:59.837Z,3544
2018-01-24T09:25:25.326Z,3512
2018-01-24T09:25:50.809Z,3472
2018-01-24T09:26:16.304Z,3432
2018-01-24T09:26:41.786Z,3392
2018-01-24T09:27:07.228Z,3428
2018-01-24T09:27:32.726Z,3496
2018-01-24T09:27:58.218Z,3488
2018-01-24T09:28:23.719Z,3520
2018-01-24T09:28:49.172Z,3560
2018-01-24T09:30:08.166Z,3720
2018-01-24T09:30:33.633Z,3852
2018-01-24T09:30:59.141Z,4036
2018-01-24T09:31:24.638Z,3952
2018-01-24T09:31:50.113Z,3664
2018-01-24T09:32:15.568Z,3484
2018-01-24T09:32:41.061Z,3504
2018-01-24T09:33:06.762Z,3692
2018-01-24T09:33:32.224Z,3856
2018-01-24T09:33:57.733Z,3920
2018-01-24T09:34:23.227Z,4172
2018-01-24T09:34:48.740Z,4348
2018-01-24T09:35:14.231Z,4492
2018-01-24T09:35:39.713Z,4640
2018-01-24T09:36:05.197Z,4716
2018-01-24T09:36:30.694Z,4768
2018-01-24T09:37:44.452Z,4380
2018-01-24T09:38:09.931Z,4032
2018-01-24T09:38:35.416Z,3484
2018-01-24T09:39:00.944Z,3700
2018-01-24T09:39:26.458Z,3964
2018-01-24T09:39:51.914Z,3940
2018-01-24T09:40:17.419Z,3300
2018-01-24T09:40:42.910Z,3104
2018-01-24T09:42:01.788Z,3872
2018-01-24T09:43:25.787Z,3924
2018-01-24T09:43:51.297Z,3696
2018-01-24T09:44:16.770Z,3220
2018-01-24T09:44:42.279Z,2624
2018-01-24T09:45:07.770Z,2196
2018-01-24T09:45:33.258Z,2124
2018-01-24T09:45:58.734Z,1912
2018-01-24T09:47:17.643Z,3048
2018-01-24T09:47:43.120Z,3516
2018-01-24T09:48:08.599Z,3540
2018-01-24T09:48:34.105Z,3224
2018-01-24T09:48:59.567Z,2800
2018-01-24T09:49:25.054Z,2256
2018-01-24T09:49:50.540Z,2484
2018-01-24T09:50:16.028Z,2436
2018-01-24T09:50:41.489Z,2128
2018-01-24T09:51:45.105Z,2492
2018-01-24T09:52:10.621Z,2896
2018-01-24T09:52:36.074Z,2860
2018-01-24T09:53:01.565Z,3152
2018-01-24T09:53:27.057Z,3544
2018-01-24T09:53:52.486Z,3128
2018-01-24T09:54:17.984Z,2280
2018-01-24T09:54:43.461Z,2288
2018-01-24T09:55:09.061Z,2684
2018-01-24T09:55:34.497Z,3164
2018-01-24T09:55:59.938Z,2864
2018-01-24T09:56:25.406Z,2480
2018-01-24T09:56:50.896Z,2936
2018-01-24T09:57:16.351Z,2992
2018-01-24T09:57:41.834Z,2592
2018-01-24T09:58:07.337Z,2516
2018-01-24T09:58:32.857Z,3184
2018-01-24T09:58:58.368Z,3236
2018-01-24T09:59:23.810Z,3912
2018-01-24T09:59:49.390Z,4456
2018-01-24T10:00:14.783Z,4636
2018-01-24T10:00:40.307Z,4164
2018-01-24T10:01:05.777Z,4084
2018-01-24T10:01:31.276Z,4236
2018-01-24T10:01:56.751Z,4332
2018-01-24T10:02:22.214Z,4332
2018-01-24T10:02:47.838Z,3844
2018-01-24T10:03:13.249Z,3288
2018-01-24T10:03:38.692Z,3016
2018-01-24T10:04:42.309Z,3824
2018-01-24T10:05:07.808Z,4124
2018-01-24T10:05:33.284Z,4176
2018-01-24T10:05:58.776Z,3796
2018-01-24T10:07:02.376Z,3120
2018-01-24T10:07:27.861Z,3156
2018-01-24T10:07:53.349Z,2800
2018-01-24T10:08:18.831Z,3208
2018-01-24T10:08:44.284Z,3604
2018-01-24T10:09:09.848Z,3988
2018-01-24T10:09:35.349Z,4592
2018-01-24T10:10:00.837Z,4956
2018-01-24T10:10:26.297Z,5140
2018-01-24T10:11:45.202Z,4516
2018-01-24T10:12:10.712Z,4160
2018-01-24T10:12:36.200Z,4068
2018-01-24T10:13:01.656Z,4200
2018-01-24T10:13:27.141Z,4276
2018-01-24T10:13:52.621Z,4752
2018-01-24T10:14:18.109Z,5112
2018-01-24T10:14:43.583Z,5320
2018-01-24T10:15:09.075Z,5148
2018-01-24T10:15:34.533Z,4960
2018-01-24T10:16:00.020Z,4864
2018-01-24T10:16:25.550Z,4988
2018-01-24T10:16:50.946Z,5168
2018-01-24T10:17:16.435Z,5156
2018-01-24T10:17:41.921Z,5020
2018-01-24T10:18:07.414Z,5188
2018-01-24T10:18:32.937Z,5528
2018-01-24T10:18:58.412Z,5776
2018-01-24T10:19:23.934Z,5776
2018-01-24T10:20:27.539Z,5540
2018-01-24T10:20:53.039Z,5472
2018-01-24T10:21:18.532Z,5184
2018-01-24T10:21:44.018Z,4692
2018-01-24T10:22:09.479Z,4504
2018-01-24T10:22:34.952Z,4392
2018-01-24T10:23:00.467Z,4396
2018-01-24T10:23:25.968Z,4624
2018-01-24T10:23:51.438Z,4732
2018-01-24T10:24:16.920Z,4864
2018-01-24T10:24:42.382Z,5028
2018-01-24T10:25:07.921Z,4868
2018-01-24T10:25:33.390Z,4408
2018-01-24T10:25:58.855Z,3928
2018-01-24T10:26:24.343Z,3840
2018-01-24T10:26:49.813Z,3884
2018-01-24T10:27:15.311Z,4160
2018-01-24T10:27:40.818Z,3816
2018-01-24T10:28:06.329Z,3596
2018-01-24T10:28:31.813Z,3384
2018-01-24T10:28:57.316Z,3084
2018-01-24T10:29:22.829Z,3644
2018-01-24T10:29:48.358Z,3936
2018-01-24T10:30:13.847Z,4052
2018-01-24T10:30:39.368Z,4240
2018-01-24T10:31:04.924Z,4016
2018-01-24T10:31:30.431Z,4132
2018-01-24T10:31:55.942Z,4332
2018-01-24T10:32:21.462Z,4608
2018-01-24T10:32:46.955Z,4732
2018-01-24T10:33:12.442Z,5040
2018-01-24T10:33:37.954Z,5136
2018-01-24T10:34:03.472Z,5340
2018-01-24T10:34:28.963Z,5324
2018-01-24T10:36:41.439Z,5048
2018-01-24T10:37:06.924Z,5200
2018-01-24T10:37:32.407Z,5284
2018-01-24T10:37:57.887Z,5244
2018-01-24T10:38:23.364Z,5244
2018-01-24T10:38:48.876Z,5412
2018-01-24T10:39:14.347Z,5580
2018-01-24T10:39:39.828Z,5628
2018-01-24T10:40:05.314Z,5508
2018-01-24T10:41:08.923Z,5660
2018-01-24T10:41:34.420Z,5268
2018-01-24T10:41:59.905Z,5124
2018-01-24T10:42:25.416Z,5020
2018-01-24T10:42:50.898Z,4936
2018-01-24T10:43:16.488Z,5140
2018-01-24T10:43:41.952Z,5404
2018-01-24T10:44:07.448Z,5484
2018-01-24T10:44:32.908Z,5428
2018-01-24T10:44:58.388Z,5396
2018-01-24T10:45:23.884Z,5276
2018-01-24T10:45:49.348Z,5280
2018-01-24T10:46:14.851Z,5320
2018-01-24T10:46:40.322Z,5276
2018-01-24T10:47:05.846Z,5332
2018-01-24T10:47:31.373Z,5272
2018-01-24T10:47:56.859Z,5240
2018-01-24T10:48:22.329Z,5160
2018-01-24T10:48:47.824Z,5140
2018-01-24T10:50:06.738Z,5288
2018-01-24T10:50:32.217Z,5384
2018-01-24T10:50:57.716Z,5544
2018-01-24T10:51:23.192Z,5644
2018-01-24T10:51:48.677Z,5644
2018-01-24T10:52:14.191Z,5588
2018-01-24T10:52:39.702Z,5548
2018-01-24T10:53:05.209Z,5504
2018-01-24T10:53:30.701Z,5516
2018-01-24T10:53:56.244Z,5572
2018-01-24T10:54:21.710Z,5640
2018-01-24T10:54:47.185Z,5804
2018-01-24T10:55:12.679Z,5956
2018-01-24T10:55:38.146Z,6080
2018-01-24T10:56:03.669Z,6196
2018-01-24T10:56:29.149Z,6252
2018-01-24T10:56:54.646Z,6268
2018-01-24T10:57:20.100Z,6340
2018-01-24T10:57:45.601Z,6368
2018-01-24T10:58:11.144Z,6432
2018-01-24T10:58:36.647Z,6592
2018-01-24T10:59:02.152Z,6700
2018-01-24T10:59:27.605Z,6768
2018-01-24T10:59:53.109Z,6784
2018-01-24T11:01:06.925Z,6940
2018-01-24T11:01:32.384Z,6964
2018-01-24T11:01:57.898Z,6968
2018-01-24T11:02:23.398Z,6856
2018-01-24T11:02:48.873Z,6780
2018-01-24T11:03:14.376Z,6684
2018-01-24T11:03:39.869Z,6676
2018-01-24T11:04:05.436Z,6680
2018-01-24T11:04:30.894Z,6564
2018-01-24T11:04:56.367Z,6604
2018-01-24T11:05:21.832Z,6604
2018-01-24T11:05:47.328Z,6480
2018-01-24T11:06:12.848Z,6336
2018-01-24T11:06:38.283Z,6412
2018-01-24T11:07:03.766Z,6600
2018-01-24T11:07:29.254Z,6560
2018-01-24T11:07:54.801Z,6376
2018-01-24T11:08:20.337Z,6044
2018-01-24T11:09:44.331Z,4720
2018-01-24T11:10:09.869Z,4408
2018-01-24T11:11:33.828Z,2736
2018-01-24T11:11:59.326Z,3440
2018-01-24T11:12:24.788Z,4076
2018-01-24T11:12:50.278Z,4688
2018-01-24T11:13:15.773Z,5168
2018-01-24T11:13:41.264Z,5344
2018-01-24T11:14:06.788Z,5492
2018-01-24T11:14:32.284Z,5600
2018-01-24T11:14:57.761Z,5692
2018-01-24T11:15:23.287Z,5684
2018-01-24T11:15:48.844Z,5452
2018-01-24T11:17:02.640Z,5344
2018-01-24T11:17:28.157Z,5296
2018-01-24T11:17:53.646Z,5300
2018-01-24T11:18:58.316Z,5436
2018-01-24T11:19:23.814Z,5444
2018-01-24T11:19:49.305Z,5404
2018-01-24T11:20:14.898Z,5424
2018-01-24T11:20:40.360Z,5440
2018-01-24T11:21:05.858Z,5396
2018-01-24T11:21:31.362Z,5424
2018-01-24T11:21:56.883Z,5328
2018-01-24T11:22:22.391Z,5332
2018-01-24T11:22:47.861Z,5296
2018-01-24T11:24:11.849Z,5356
2018-01-24T11:24:37.340Z,5380
2018-01-24T11:25:02.836Z,5392
2018-01-24T11:25:28.345Z,5392
2018-01-24T11:25:53.870Z,5384
2018-01-24T11:26:19.492Z,5396
2018-01-24T11:26:44.937Z,5452
2018-01-24T11:27:10.407Z,5468
2018-01-24T11:27:35.901Z,5344
2018-01-24T11:28:01.408Z,5288
2018-01-24T11:28:26.885Z,5256
2018-01-24T11:28:52.338Z,5240
2018-01-24T11:29:17.931Z,5232
2018-01-24T11:29:43.398Z,5248
2018-01-24T11:30:08.888Z,5224
2018-01-24T11:30:34.426Z,5176
2018-01-24T11:30:59.876Z,5164
2018-01-24T11:31:25.349Z,5156
2018-01-24T11:31:50.959Z,5132
2018-01-24T11:32:16.412Z,5160
2018-01-24T11:32:41.911Z,5176
2018-01-24T11:33:07.380Z,5100
2018-01-24T11:33:32.851Z,5112
2018-01-24T11:33:58.373Z,5156
2018-01-24T11:34:23.899Z,5196
2018-01-24T11:34:49.375Z,5280
2018-01-24T11:35:14.867Z,5332
2018-01-24T11:35:40.361Z,5456
2018-01-24T11:36:05.843Z,5500
2018-01-24T11:36:31.324Z,5448
2018-01-24T11:36:56.838Z,5404
2018-01-24T11:37:22.321Z,5408
2018-01-24T11:37:47.826Z,5380
2018-01-24T11:38:13.336Z,5284
2018-01-24T11:38:38.796Z,5244
2018-01-24T11:39:04.323Z,5320
2018-01-24T11:39:29.825Z,5352
2018-01-24T11:39:55.372Z,5396
2018-01-24T11:40:20.840Z,5472
2018-01-24T11:40:46.302Z,5564
2018-01-24T11:41:11.807Z,5528
2018-01-24T11:41:37.299Z,5404
2018-01-24T11:42:02.818Z,5468
2018-01-24T11:42:28.330Z,5208
2018-01-24T11:42:53.794Z,5036
2018-01-24T11:43:19.294Z,5184
2018-01-24T11:43:44.814Z,4852
2018-01-24T11:44:10.257Z,4800
2018-01-24T11:44:35.741Z,4660
2018-01-24T11:45:01.228Z,4336
2018-01-24T11:45:26.698Z,4488
2018-01-24T11:45:52.207Z,4656